sensor_id;sensor_type;location;lat;lon;timestamp;temperature;humidity
46706;DHT22;33519;50.712;7.124;2023-03-16T00:00:54;2.60;99.90
46706;DHT22;33519;50.712;7.124;2023-03-16T00:03:21;2.70;99.90
46706;DHT22;33519;50.712;7.124;2023-03-16T00:05:51;2.70;99.90
46706;DHT22;33519;50.712;7.124;2023-03-16T00:08:18;2.70;99.90
46706;DHT22;33519;50.712;7.124;2023-03-16T00:10:45;2.70;99.90
46706;DHT22;33519;50.712;7.124;2023-03-16T00:13:18;2.70;99.90
46706;DHT22;33519;50.712;7.124;2023-03-16T00:15:48;2.70;99.90
46706;DHT22;33519;50.712;7.124;2023-03-16T00:18:15;2.70;99.90
46706;DHT22;33519;50.712;7.124;2023-03-16T00:20:42;2.60;99.90
46706;DHT22;33519;50.712;7.124;2023-03-16T00:23:08;2.60;99.90
46706;DHT22;33519;50.712;7.124;2023-03-16T00:25:35;2.60;99.90
46706;DHT22;33519;50.712;7.124;2023-03-16T00:28:02;2.60;99.90
46706;DHT22;33519;50.712;7.124;2023-03-16T00:30:29;2.60;99.90
46706;DHT22;33519;50.712;7.124;2023-03-16T00:32:58;2.60;99.90
46706;DHT22;33519;50.712;7.124;2023-03-16T00:35:24;2.60;99.90
46706;DHT22;33519;50.712;7.124;2023-03-16T00:37:51;2.60;99.90
46706;DHT22;33519;50.712;7.124;2023-03-16T00:40:18;2.60;99.90
46706;DHT22;33519;50.712;7.124;2023-03-16T00:42:44;2.60;99.90
46706;DHT22;33519;50.712;7.124;2023-03-16T00:45:11;2.60;99.90
46706;DHT22;33519;50.712;7.124;2023-03-16T00:47:37;2.60;99.90
46706;DHT22;33519;50.712;7.124;2023-03-16T00:50:04;2.60;99.90
46706;DHT22;33519;50.712;7.124;2023-03-16T00:52:31;2.60;99.90
46706;DHT22;33519;50.712;7.124;2023-03-16T00:54:57;2.60;99.90
46706;DHT22;33519;50.712;7.124;2023-03-16T00:57:24;2.60;99.90
46706;DHT22;33519;50.712;7.124;2023-03-16T00:59:51;2.60;99.90
46706;DHT22;33519;50.712;7.124;2023-03-16T01:02:18;2.60;99.90
46706;DHT22;33519;50.712;7.124;2023-03-16T01:04:48;2.70;99.90
46706;DHT22;33519;50.712;7.124;2023-03-16T01:07:15;2.70;99.90
46706;DHT22;33519;50.712;7.124;2023-03-16T01:09:42;2.60;99.90
46706;DHT22;33519;50.712;7.124;2023-03-16T01:12:10;2.70;99.90
46706;DHT22;33519;50.712;7.124;2023-03-16T01:14:38;2.70;99.90
46706;DHT22;33519;50.712;7.124;2023-03-16T01:17:05;2.70;99.90
46706;DHT22;33519;50.712;7.124;2023-03-16T01:19:34;2.70;99.90
46706;DHT22;33519;50.712;7.124;2023-03-16T01:22:02;2.70;99.90
46706;DHT22;33519;50.712;7.124;2023-03-16T01:24:29;2.70;99.90
46706;DHT22;33519;50.712;7.124;2023-03-16T01:26:56;2.70;99.90
46706;DHT22;33519;50.712;7.124;2023-03-16T01:29:23;2.60;99.90
46706;DHT22;33519;50.712;7.124;2023-03-16T01:31:50;2.60;99.90
46706;DHT22;33519;50.712;7.124;2023-03-16T01:34:17;2.60;99.90
46706;DHT22;33519;50.712;7.124;2023-03-16T01:36:46;2.60;99.90
46706;DHT22;33519;50.712;7.124;2023-03-16T01:39:13;2.60;99.90
46706;DHT22;33519;50.712;7.124;2023-03-16T01:41:40;2.70;99.90
46706;DHT22;33519;50.712;7.124;2023-03-16T01:44:17;2.70;99.90
46706;DHT22;33519;50.712;7.124;2023-03-16T01:46:45;2.60;99.90
46706;DHT22;33519;50.712;7.124;2023-03-16T01:51:39;2.60;99.90
46706;DHT22;33519;50.712;7.124;2023-03-16T01:54:15;2.50;99.90
46706;DHT22;33519;50.712;7.124;2023-03-16T01:57:07;2.60;99.90
46706;DHT22;33519;50.712;7.124;2023-03-16T01:59:35;2.50;99.90
46706;DHT22;33519;50.712;7.124;2023-03-16T02:02:02;2.50;99.90
46706;DHT22;33519;50.712;7.124;2023-03-16T02:07:15;2.60;99.90
46706;DHT22;33519;50.712;7.124;2023-03-16T02:09:43;2.60;99.90
46706;DHT22;33519;50.712;7.124;2023-03-16T02:12:15;2.60;99.90
46706;DHT22;33519;50.712;7.124;2023-03-16T02:14:45;2.60;99.90
46706;DHT22;33519;50.712;7.124;2023-03-16T02:17:16;2.60;99.90
46706;DHT22;33519;50.712;7.124;2023-03-16T02:19:50;2.60;99.90
46706;DHT22;33519;50.712;7.124;2023-03-16T02:22:18;2.70;99.90
46706;DHT22;33519;50.712;7.124;2023-03-16T02:24:45;2.70;99.90
46706;DHT22;33519;50.712;7.124;2023-03-16T02:27:12;2.70;99.90
46706;DHT22;33519;50.712;7.124;2023-03-16T02:29:56;2.80;99.90
46706;DHT22;33519;50.712;7.124;2023-03-16T02:32:25;2.80;99.90
46706;DHT22;33519;50.712;7.124;2023-03-16T02:34:53;2.80;99.90
46706;DHT22;33519;50.712;7.124;2023-03-16T02:37:20;2.80;99.90
46706;DHT22;33519;50.712;7.124;2023-03-16T02:39:47;2.80;99.90
46706;DHT22;33519;50.712;7.124;2023-03-16T02:42:14;2.80;99.90
46706;DHT22;33519;50.712;7.124;2023-03-16T02:44:42;2.70;99.90
46706;DHT22;33519;50.712;7.124;2023-03-16T02:47:22;2.70;99.90
46706;DHT22;33519;50.712;7.124;2023-03-16T02:49:50;2.70;99.90
46706;DHT22;33519;50.712;7.124;2023-03-16T02:52:16;2.70;99.90
46706;DHT22;33519;50.712;7.124;2023-03-16T02:54:43;2.60;99.90
46706;DHT22;33519;50.712;7.124;2023-03-16T02:57:09;2.70;99.90
46706;DHT22;33519;50.712;7.124;2023-03-16T02:59:36;2.70;99.90
46706;DHT22;33519;50.712;7.124;2023-03-16T03:02:02;2.60;99.90
46706;DHT22;33519;50.712;7.124;2023-03-16T03:04:29;2.60;99.90
46706;DHT22;33519;50.712;7.124;2023-03-16T03:06:58;2.60;99.90
46706;DHT22;33519;50.712;7.124;2023-03-16T03:09:30;2.60;99.90
46706;DHT22;33519;50.712;7.124;2023-03-16T03:11:58;2.60;99.90
46706;DHT22;33519;50.712;7.124;2023-03-16T03:14:25;2.60;99.90
46706;DHT22;33519;50.712;7.124;2023-03-16T03:16:53;2.60;99.90
46706;DHT22;33519;50.712;7.124;2023-03-16T03:19:20;2.60;99.90
46706;DHT22;33519;50.712;7.124;2023-03-16T03:21:48;2.50;99.90
46706;DHT22;33519;50.712;7.124;2023-03-16T03:24:15;2.60;99.90
46706;DHT22;33519;50.712;7.124;2023-03-16T03:26:41;2.60;99.90
46706;DHT22;33519;50.712;7.124;2023-03-16T03:29:10;2.70;99.90
46706;DHT22;33519;50.712;7.124;2023-03-16T03:31:38;2.60;99.90
46706;DHT22;33519;50.712;7.124;2023-03-16T03:34:04;2.60;99.90
46706;DHT22;33519;50.712;7.124;2023-03-16T03:36:32;2.60;99.90
46706;DHT22;33519;50.712;7.124;2023-03-16T03:39:00;2.60;99.90
46706;DHT22;33519;50.712;7.124;2023-03-16T03:41:31;2.60;99.90
46706;DHT22;33519;50.712;7.124;2023-03-16T03:43:58;2.60;99.90
46706;DHT22;33519;50.712;7.124;2023-03-16T03:46:25;2.60;99.90
46706;DHT22;33519;50.712;7.124;2023-03-16T03:48:52;2.70;99.90
46706;DHT22;33519;50.712;7.124;2023-03-16T03:51:19;2.70;99.90
46706;DHT22;33519;50.712;7.124;2023-03-16T03:53:47;2.60;99.90
46706;DHT22;33519;50.712;7.124;2023-03-16T03:56:13;2.60;99.90
46706;DHT22;33519;50.712;7.124;2023-03-16T03:58:40;2.60;99.90
46706;DHT22;33519;50.712;7.124;2023-03-16T04:01:07;2.60;99.90
46706;DHT22;33519;50.712;7.124;2023-03-16T04:03:33;2.70;99.90
46706;DHT22;33519;50.712;7.124;2023-03-16T04:06:00;2.70;99.90
46706;DHT22;33519;50.712;7.124;2023-03-16T04:08:26;2.70;99.90
46706;DHT22;33519;50.712;7.124;2023-03-16T04:10:53;2.80;99.90
46706;DHT22;33519;50.712;7.124;2023-03-16T04:13:20;2.80;99.90
46706;DHT22;33519;50.712;7.124;2023-03-16T04:15:46;2.80;99.90
46706;DHT22;33519;50.712;7.124;2023-03-16T04:18:13;2.80;99.90
46706;DHT22;33519;50.712;7.124;2023-03-16T04:20:39;2.90;99.90
46706;DHT22;33519;50.712;7.124;2023-03-16T04:23:06;2.90;99.90
46706;DHT22;33519;50.712;7.124;2023-03-16T04:25:33;2.90;99.90
46706;DHT22;33519;50.712;7.124;2023-03-16T04:28:00;2.90;99.90
46706;DHT22;33519;50.712;7.124;2023-03-16T04:30:27;2.90;99.90
46706;DHT22;33519;50.712;7.124;2023-03-16T04:32:56;2.90;99.90
46706;DHT22;33519;50.712;7.124;2023-03-16T04:35:23;2.90;99.90
46706;DHT22;33519;50.712;7.124;2023-03-16T04:37:50;2.90;99.90
46706;DHT22;33519;50.712;7.124;2023-03-16T04:40:16;2.90;99.90
46706;DHT22;33519;50.712;7.124;2023-03-16T04:42:45;2.90;99.90
46706;DHT22;33519;50.712;7.124;2023-03-16T04:45:12;3.00;99.90
46706;DHT22;33519;50.712;7.124;2023-03-16T04:47:39;3.00;99.90
46706;DHT22;33519;50.712;7.124;2023-03-16T04:50:06;3.00;99.90
46706;DHT22;33519;50.712;7.124;2023-03-16T04:52:33;2.90;99.90
46706;DHT22;33519;50.712;7.124;2023-03-16T04:55:00;2.90;99.90
46706;DHT22;33519;50.712;7.124;2023-03-16T04:57:26;3.00;99.90
46706;DHT22;33519;50.712;7.124;2023-03-16T04:59:53;3.00;99.90
46706;DHT22;33519;50.712;7.124;2023-03-16T05:02:20;3.00;99.90
46706;DHT22;33519;50.712;7.124;2023-03-16T05:04:46;3.00;99.90
46706;DHT22;33519;50.712;7.124;2023-03-16T05:07:13;3.00;99.90
46706;DHT22;33519;50.712;7.124;2023-03-16T05:09:40;3.00;99.90
46706;DHT22;33519;50.712;7.124;2023-03-16T05:12:07;3.00;99.90
46706;DHT22;33519;50.712;7.124;2023-03-16T05:14:33;3.00;99.90
46706;DHT22;33519;50.712;7.124;2023-03-16T05:17:01;3.00;99.90
46706;DHT22;33519;50.712;7.124;2023-03-16T05:19:31;3.00;99.90
46706;DHT22;33519;50.712;7.124;2023-03-16T05:21:57;3.00;99.90
46706;DHT22;33519;50.712;7.124;2023-03-16T05:24:24;3.00;99.90
46706;DHT22;33519;50.712;7.124;2023-03-16T05:26:50;3.00;99.90
46706;DHT22;33519;50.712;7.124;2023-03-16T05:29:17;3.00;99.90
46706;DHT22;33519;50.712;7.124;2023-03-16T05:31:44;3.00;99.90
46706;DHT22;33519;50.712;7.124;2023-03-16T05:34:13;3.00;99.90
46706;DHT22;33519;50.712;7.124;2023-03-16T05:36:40;3.00;99.90
46706;DHT22;33519;50.712;7.124;2023-03-16T05:39:06;3.00;99.90
46706;DHT22;33519;50.712;7.124;2023-03-16T05:41:34;3.00;99.90
46706;DHT22;33519;50.712;7.124;2023-03-16T05:44:00;3.00;99.90
46706;DHT22;33519;50.712;7.124;2023-03-16T05:46:27;3.00;99.90
46706;DHT22;33519;50.712;7.124;2023-03-16T05:48:57;3.00;99.90
46706;DHT22;33519;50.712;7.124;2023-03-16T05:51:23;3.00;99.90
46706;DHT22;33519;50.712;7.124;2023-03-16T05:53:53;3.00;99.90
46706;DHT22;33519;50.712;7.124;2023-03-16T05:56:24;3.00;99.90
46706;DHT22;33519;50.712;7.124;2023-03-16T05:58:54;3.00;99.90
46706;DHT22;33519;50.712;7.124;2023-03-16T06:01:21;3.00;99.90
46706;DHT22;33519;50.712;7.124;2023-03-16T06:03:48;3.00;99.90
46706;DHT22;33519;50.712;7.124;2023-03-16T06:06:15;3.00;99.90
46706;DHT22;33519;50.712;7.124;2023-03-16T06:08:42;3.00;99.90
46706;DHT22;33519;50.712;7.124;2023-03-16T06:11:09;3.00;99.90
46706;DHT22;33519;50.712;7.124;2023-03-16T06:13:37;3.00;99.90
46706;DHT22;33519;50.712;7.124;2023-03-16T06:16:03;3.00;99.90
46706;DHT22;33519;50.712;7.124;2023-03-16T06:18:32;3.00;99.90
46706;DHT22;33519;50.712;7.124;2023-03-16T06:20:58;3.00;99.90
46706;DHT22;33519;50.712;7.124;2023-03-16T06:23:25;3.00;99.90
46706;DHT22;33519;50.712;7.124;2023-03-16T06:25:51;3.10;99.90
46706;DHT22;33519;50.712;7.124;2023-03-16T06:28:21;3.20;99.90
46706;DHT22;33519;50.712;7.124;2023-03-16T06:30:48;3.20;99.90
46706;DHT22;33519;50.712;7.124;2023-03-16T06:33:18;3.20;99.90
46706;DHT22;33519;50.712;7.124;2023-03-16T06:35:44;3.30;99.90
46706;DHT22;33519;50.712;7.124;2023-03-16T06:38:13;3.30;99.90
46706;DHT22;33519;50.712;7.124;2023-03-16T06:40:40;3.30;99.90
46706;DHT22;33519;50.712;7.124;2023-03-16T06:43:07;3.40;99.90
46706;DHT22;33519;50.712;7.124;2023-03-16T06:45:33;3.40;99.90
46706;DHT22;33519;50.712;7.124;2023-03-16T06:48:00;3.50;99.90
46706;DHT22;33519;50.712;7.124;2023-03-16T06:50:27;3.50;99.90
46706;DHT22;33519;50.712;7.124;2023-03-16T06:52:54;3.60;99.90
46706;DHT22;33519;50.712;7.124;2023-03-16T06:55:21;3.60;99.90
46706;DHT22;33519;50.712;7.124;2023-03-16T06:57:47;3.60;99.90
46706;DHT22;33519;50.712;7.124;2023-03-16T07:00:14;3.70;99.90
46706;DHT22;33519;50.712;7.124;2023-03-16T07:02:44;3.70;99.90
46706;DHT22;33519;50.712;7.124;2023-03-16T07:05:11;3.80;99.90
46706;DHT22;33519;50.712;7.124;2023-03-16T07:07:40;3.90;99.90
46706;DHT22;33519;50.712;7.124;2023-03-16T07:10:12;3.90;99.90
46706;DHT22;33519;50.712;7.124;2023-03-16T07:12:39;3.90;99.90
46706;DHT22;33519;50.712;7.124;2023-03-16T07:15:06;4.00;99.90
46706;DHT22;33519;50.712;7.124;2023-03-16T07:17:32;4.10;99.90
46706;DHT22;33519;50.712;7.124;2023-03-16T07:19:59;4.10;99.90
46706;DHT22;33519;50.712;7.124;2023-03-16T07:22:26;4.20;99.90
46706;DHT22;33519;50.712;7.124;2023-03-16T07:24:52;4.20;99.90
46706;DHT22;33519;50.712;7.124;2023-03-16T07:27:23;4.30;99.90
46706;DHT22;33519;50.712;7.124;2023-03-16T07:29:49;4.50;99.90
46706;DHT22;33519;50.712;7.124;2023-03-16T07:32:17;4.50;99.90
46706;DHT22;33519;50.712;7.124;2023-03-16T07:34:44;4.60;99.90
46706;DHT22;33519;50.712;7.124;2023-03-16T07:37:13;4.70;99.90
46706;DHT22;33519;50.712;7.124;2023-03-16T07:39:52;4.70;99.90
46706;DHT22;33519;50.712;7.124;2023-03-16T07:42:23;4.80;99.90
46706;DHT22;33519;50.712;7.124;2023-03-16T07:44:49;4.80;99.90
46706;DHT22;33519;50.712;7.124;2023-03-16T07:47:17;4.80;99.90
46706;DHT22;33519;50.712;7.124;2023-03-16T07:49:50;5.00;99.90
46706;DHT22;33519;50.712;7.124;2023-03-16T07:52:17;5.10;99.90
46706;DHT22;33519;50.712;7.124;2023-03-16T07:54:46;5.10;99.90
46706;DHT22;33519;50.712;7.124;2023-03-16T07:57:16;5.20;99.90
46706;DHT22;33519;50.712;7.124;2023-03-16T07:59:46;5.20;99.90
46706;DHT22;33519;50.712;7.124;2023-03-16T08:02:18;5.20;99.90
46706;DHT22;33519;50.712;7.124;2023-03-16T08:04:45;5.10;99.90
46706;DHT22;33519;50.712;7.124;2023-03-16T08:07:12;5.20;99.90
46706;DHT22;33519;50.712;7.124;2023-03-16T08:09:40;5.20;99.90
46706;DHT22;33519;50.712;7.124;2023-03-16T08:12:07;5.30;99.90
46706;DHT22;33519;50.712;7.124;2023-03-16T08:14:34;5.30;99.90
46706;DHT22;33519;50.712;7.124;2023-03-16T08:17:03;5.30;99.90
46706;DHT22;33519;50.712;7.124;2023-03-16T08:19:31;5.30;99.90
46706;DHT22;33519;50.712;7.124;2023-03-16T08:22:05;5.30;99.90
46706;DHT22;33519;50.712;7.124;2023-03-16T08:24:34;5.30;99.90
46706;DHT22;33519;50.712;7.124;2023-03-16T08:27:00;5.30;99.90
46706;DHT22;33519;50.712;7.124;2023-03-16T08:29:30;5.40;99.90
46706;DHT22;33519;50.712;7.124;2023-03-16T08:32:00;5.50;99.90
46706;DHT22;33519;50.712;7.124;2023-03-16T08:34:33;5.60;99.90
46706;DHT22;33519;50.712;7.124;2023-03-16T08:37:02;5.60;99.90
46706;DHT22;33519;50.712;7.124;2023-03-16T08:39:33;5.70;99.90
46706;DHT22;33519;50.712;7.124;2023-03-16T08:42:03;5.80;99.90
46706;DHT22;33519;50.712;7.124;2023-03-16T08:44:46;5.90;99.90
46706;DHT22;33519;50.712;7.124;2023-03-16T08:47:23;5.90;99.90
46706;DHT22;33519;50.712;7.124;2023-03-16T08:50:00;6.10;99.90
46706;DHT22;33519;50.712;7.124;2023-03-16T08:52:27;6.30;99.90
46706;DHT22;33519;50.712;7.124;2023-03-16T08:54:54;6.30;99.90
46706;DHT22;33519;50.712;7.124;2023-03-16T08:57:29;6.30;99.90
46706;DHT22;33519;50.712;7.124;2023-03-16T08:59:57;6.30;99.90
46706;DHT22;33519;50.712;7.124;2023-03-16T09:02:24;6.40;99.90
46706;DHT22;33519;50.712;7.124;2023-03-16T09:04:51;6.60;99.90
46706;DHT22;33519;50.712;7.124;2023-03-16T09:07:18;6.40;99.90
46706;DHT22;33519;50.712;7.124;2023-03-16T09:09:44;6.30;99.90
46706;DHT22;33519;50.712;7.124;2023-03-16T09:12:11;6.30;99.90
46706;DHT22;33519;50.712;7.124;2023-03-16T09:14:38;6.40;99.90
46706;DHT22;33519;50.712;7.124;2023-03-16T09:17:05;6.60;99.90
46706;DHT22;33519;50.712;7.124;2023-03-16T09:19:33;6.60;99.90
46706;DHT22;33519;50.712;7.124;2023-03-16T09:22:17;6.60;99.90
46706;DHT22;33519;50.712;7.124;2023-03-16T09:24:45;6.80;99.90
46706;DHT22;33519;50.712;7.124;2023-03-16T09:27:11;7.10;99.90
46706;DHT22;33519;50.712;7.124;2023-03-16T09:29:38;7.50;99.90
46706;DHT22;33519;50.712;7.124;2023-03-16T09:32:06;7.80;99.90
46706;DHT22;33519;50.712;7.124;2023-03-16T09:34:33;7.90;99.90
46706;DHT22;33519;50.712;7.124;2023-03-16T09:37:00;8.10;99.90
46706;DHT22;33519;50.712;7.124;2023-03-16T09:39:27;8.70;99.90
46706;DHT22;33519;50.712;7.124;2023-03-16T09:42:13;8.80;99.90
46706;DHT22;33519;50.712;7.124;2023-03-16T09:47:11;9.20;99.90
46706;DHT22;33519;50.712;7.124;2023-03-16T09:49:42;9.30;99.90
46706;DHT22;33519;50.712;7.124;2023-03-16T09:57:13;8.20;99.90
46706;DHT22;33519;50.712;7.124;2023-03-16T09:59:41;7.90;99.90
46706;DHT22;33519;50.712;7.124;2023-03-16T10:09:57;7.70;99.90
46706;DHT22;33519;50.712;7.124;2023-03-16T10:12:31;7.80;99.90
46706;DHT22;33519;50.712;7.124;2023-03-16T10:15:05;7.60;99.90
46706;DHT22;33519;50.712;7.124;2023-03-16T10:17:44;7.70;99.90
46706;DHT22;33519;50.712;7.124;2023-03-16T10:20:17;7.90;99.90
46706;DHT22;33519;50.712;7.124;2023-03-16T10:22:45;7.90;99.90
46706;DHT22;33519;50.712;7.124;2023-03-16T10:27:45;8.10;99.90
46706;DHT22;33519;50.712;7.124;2023-03-16T10:30:20;8.20;99.90
46706;DHT22;33519;50.712;7.124;2023-03-16T10:32:47;8.10;99.90
46706;DHT22;33519;50.712;7.124;2023-03-16T10:40:56;8.20;99.90
46706;DHT22;33519;50.712;7.124;2023-03-16T10:43:26;8.10;99.90
46706;DHT22;33519;50.712;7.124;2023-03-16T10:45:59;8.20;99.90
46706;DHT22;33519;50.712;7.124;2023-03-16T10:48:29;8.40;99.90
46706;DHT22;33519;50.712;7.124;2023-03-16T10:50:59;8.90;99.90
46706;DHT22;33519;50.712;7.124;2023-03-16T10:53:29;9.50;99.90
46706;DHT22;33519;50.712;7.124;2023-03-16T10:55:57;9.60;99.90
46706;DHT22;33519;50.712;7.124;2023-03-16T10:58:25;9.80;99.90
46706;DHT22;33519;50.712;7.124;2023-03-16T11:00:56;10.10;99.60
46706;DHT22;33519;50.712;7.124;2023-03-16T11:03:28;10.30;99.20
46706;DHT22;33519;50.712;7.124;2023-03-16T11:06:01;10.80;97.70
46706;DHT22;33519;50.712;7.124;2023-03-16T11:08:46;10.80;97.70
46706;DHT22;33519;50.712;7.124;2023-03-16T11:11:23;10.80;97.20
46706;DHT22;33519;50.712;7.124;2023-03-16T11:13:54;10.40;97.80
46706;DHT22;33519;50.712;7.124;2023-03-16T11:19:16;11.10;97.20
46706;DHT22;33519;50.712;7.124;2023-03-16T11:21:46;11.20;96.40
46706;DHT22;33519;50.712;7.124;2023-03-16T11:24:18;11.00;96.40
46706;DHT22;33519;50.712;7.124;2023-03-16T11:26:52;11.50;96.80
46706;DHT22;33519;50.712;7.124;2023-03-16T11:31:53;12.10;94.90
46706;DHT22;33519;50.712;7.124;2023-03-16T11:34:27;12.00;94.70
46706;DHT22;33519;50.712;7.124;2023-03-16T11:36:55;11.90;94.60
46706;DHT22;33519;50.712;7.124;2023-03-16T11:44:36;12.20;93.60
46706;DHT22;33519;50.712;7.124;2023-03-16T11:50:06;12.40;93.40
46706;DHT22;33519;50.712;7.124;2023-03-16T11:52:31;12.70;93.40
46706;DHT22;33519;50.712;7.124;2023-03-16T11:55:03;13.10;93.30
46706;DHT22;33519;50.712;7.124;2023-03-16T12:00:06;13.20;92.00
46706;DHT22;33519;50.712;7.124;2023-03-16T12:05:27;13.30;92.00
46706;DHT22;33519;50.712;7.124;2023-03-16T12:10:39;13.20;92.00
46706;DHT22;33519;50.712;7.124;2023-03-16T12:13:25;13.10;92.00
46706;DHT22;33519;50.712;7.124;2023-03-16T12:15:57;13.20;91.70
46706;DHT22;33519;50.712;7.124;2023-03-16T12:21:11;12.80;92.00
46706;DHT22;33519;50.712;7.124;2023-03-16T12:23:42;12.90;92.00
46706;DHT22;33519;50.712;7.124;2023-03-16T12:26:09;13.20;92.30
46706;DHT22;33519;50.712;7.124;2023-03-16T12:28:38;13.30;90.90
46706;DHT22;33519;50.712;7.124;2023-03-16T12:31:07;13.10;91.30
46706;DHT22;33519;50.712;7.124;2023-03-16T12:36:27;13.50;91.50
46706;DHT22;33519;50.712;7.124;2023-03-16T12:39:04;13.90;90.80
46706;DHT22;33519;50.712;7.124;2023-03-16T12:46:51;13.30;91.60
46706;DHT22;33519;50.712;7.124;2023-03-16T12:49:22;13.30;91.40
46706;DHT22;33519;50.712;7.124;2023-03-16T12:52:00;13.50;90.60
46706;DHT22;33519;50.712;7.124;2023-03-16T12:54:27;13.30;90.80
46706;DHT22;33519;50.712;7.124;2023-03-16T12:57:00;13.50;90.90
46706;DHT22;33519;50.712;7.124;2023-03-16T12:59:37;13.90;90.40
46706;DHT22;33519;50.712;7.124;2023-03-16T13:02:07;14.00;87.90
46706;DHT22;33519;50.712;7.124;2023-03-16T13:04:38;13.60;89.70
46706;DHT22;33519;50.712;7.124;2023-03-16T13:07:17;12.90;90.10
46706;DHT22;33519;50.712;7.124;2023-03-16T13:12:39;12.80;91.00
46706;DHT22;33519;50.712;7.124;2023-03-16T13:17:38;12.70;91.50
46706;DHT22;33519;50.712;7.124;2023-03-16T13:20:24;12.80;91.00
46706;DHT22;33519;50.712;7.124;2023-03-16T13:23:07;13.00;90.60
46706;DHT22;33519;50.712;7.124;2023-03-16T13:25:39;12.70;91.40
46706;DHT22;33519;50.712;7.124;2023-03-16T13:28:14;12.80;90.70
46706;DHT22;33519;50.712;7.124;2023-03-16T13:30:45;12.70;90.80
46706;DHT22;33519;50.712;7.124;2023-03-16T13:33:32;12.50;91.20
46706;DHT22;33519;50.712;7.124;2023-03-16T13:36:02;12.80;91.20
46706;DHT22;33519;50.712;7.124;2023-03-16T13:38:30;13.00;90.60
46706;DHT22;33519;50.712;7.124;2023-03-16T13:41:01;13.10;90.90
46706;DHT22;33519;50.712;7.124;2023-03-16T13:43:29;13.40;90.10
46706;DHT22;33519;50.712;7.124;2023-03-16T13:45:58;13.70;90.20
46706;DHT22;33519;50.712;7.124;2023-03-16T13:48:25;14.20;87.60
46706;DHT22;33519;50.712;7.124;2023-03-16T13:50:53;14.00;87.90
46706;DHT22;33519;50.712;7.124;2023-03-16T13:53:23;13.70;87.90
46706;DHT22;33519;50.712;7.124;2023-03-16T13:55:51;13.80;88.80
46706;DHT22;33519;50.712;7.124;2023-03-16T13:58:22;13.40;87.90
46706;DHT22;33519;50.712;7.124;2023-03-16T14:00:49;13.30;90.10
46706;DHT22;33519;50.712;7.124;2023-03-16T14:03:20;13.70;88.70
46706;DHT22;33519;50.712;7.124;2023-03-16T14:05:49;13.60;89.40
46706;DHT22;33519;50.712;7.124;2023-03-16T14:08:17;13.70;87.90
46706;DHT22;33519;50.712;7.124;2023-03-16T14:10:45;13.40;87.20
46706;DHT22;33519;50.712;7.124;2023-03-16T14:15:54;13.80;88.40
46706;DHT22;33519;50.712;7.124;2023-03-16T14:18:32;13.80;87.00
46706;DHT22;33519;50.712;7.124;2023-03-16T14:21:03;14.00;87.70
46706;DHT22;33519;50.712;7.124;2023-03-16T14:23:32;13.80;86.30
46706;DHT22;33519;50.712;7.124;2023-03-16T14:25:59;13.10;87.90
46706;DHT22;33519;50.712;7.124;2023-03-16T14:28:30;13.00;89.90
46706;DHT22;33519;50.712;7.124;2023-03-16T14:31:17;13.00;88.90
46706;DHT22;33519;50.712;7.124;2023-03-16T14:33:45;13.00;90.00
46706;DHT22;33519;50.712;7.124;2023-03-16T14:36:15;13.00;89.80
46706;DHT22;33519;50.712;7.124;2023-03-16T14:38:43;13.10;89.80
46706;DHT22;33519;50.712;7.124;2023-03-16T14:46:27;13.10;89.90
46706;DHT22;33519;50.712;7.124;2023-03-16T14:49:56;13.30;89.40
46706;DHT22;33519;50.712;7.124;2023-03-16T14:51:51;13.30;90.20
46706;DHT22;33519;50.712;7.124;2023-03-16T14:54:20;13.50;88.40
46706;DHT22;33519;50.712;7.124;2023-03-16T14:56:50;13.50;89.50
46706;DHT22;33519;50.712;7.124;2023-03-16T14:59:17;14.00;87.90
46706;DHT22;33519;50.712;7.124;2023-03-16T15:01:44;13.90;87.30
46706;DHT22;33519;50.712;7.124;2023-03-16T15:04:12;13.70;88.80
46706;DHT22;33519;50.712;7.124;2023-03-16T15:06:40;14.00;87.80
46706;DHT22;33519;50.712;7.124;2023-03-16T15:09:12;13.80;87.80
46706;DHT22;33519;50.712;7.124;2023-03-16T15:11:44;14.00;88.30
46706;DHT22;33519;50.712;7.124;2023-03-16T15:14:11;14.30;87.10
46706;DHT22;33519;50.712;7.124;2023-03-16T15:17:01;14.30;87.30
46706;DHT22;33519;50.712;7.124;2023-03-16T15:19:28;14.30;87.40
46706;DHT22;33519;50.712;7.124;2023-03-16T15:21:55;14.20;87.10
46706;DHT22;33519;50.712;7.124;2023-03-16T15:24:22;14.40;86.80
46706;DHT22;33519;50.712;7.124;2023-03-16T15:26:48;14.70;87.30
46706;DHT22;33519;50.712;7.124;2023-03-16T15:29:16;15.00;84.60
46706;DHT22;33519;50.712;7.124;2023-03-16T15:31:45;14.90;85.60
46706;DHT22;33519;50.712;7.124;2023-03-16T15:34:12;14.50;87.10
46706;DHT22;33519;50.712;7.124;2023-03-16T15:36:38;14.10;87.30
46706;DHT22;33519;50.712;7.124;2023-03-16T15:39:05;14.00;88.60
46706;DHT22;33519;50.712;7.124;2023-03-16T15:41:33;14.20;87.90
46706;DHT22;33519;50.712;7.124;2023-03-16T15:44:13;14.30;88.00
46706;DHT22;33519;50.712;7.124;2023-03-16T15:46:39;14.40;87.80
46706;DHT22;33519;50.712;7.124;2023-03-16T15:49:06;14.40;88.40
46706;DHT22;33519;50.712;7.124;2023-03-16T15:51:33;14.30;88.20
46706;DHT22;33519;50.712;7.124;2023-03-16T15:54:01;14.60;87.50
46706;DHT22;33519;50.712;7.124;2023-03-16T15:56:30;15.00;86.00
46706;DHT22;33519;50.712;7.124;2023-03-16T15:59:10;14.60;86.60
46706;DHT22;33519;50.712;7.124;2023-03-16T16:01:40;14.20;88.90
46706;DHT22;33519;50.712;7.124;2023-03-16T16:04:14;14.10;89.10
46706;DHT22;33519;50.712;7.124;2023-03-16T16:06:42;14.20;88.80
46706;DHT22;33519;50.712;7.124;2023-03-16T16:09:09;14.40;88.00
46706;DHT22;33519;50.712;7.124;2023-03-16T16:11:36;14.30;88.10
46706;DHT22;33519;50.712;7.124;2023-03-16T16:14:03;14.20;88.50
46706;DHT22;33519;50.712;7.124;2023-03-16T16:16:29;13.90;90.00
46706;DHT22;33519;50.712;7.124;2023-03-16T16:18:57;13.50;90.20
46706;DHT22;33519;50.712;7.124;2023-03-16T16:21:25;13.00;91.00
46706;DHT22;33519;50.712;7.124;2023-03-16T16:23:56;12.80;91.90
46706;DHT22;33519;50.712;7.124;2023-03-16T16:26:27;12.60;92.10
46706;DHT22;33519;50.712;7.124;2023-03-16T16:29:14;12.60;92.10
46706;DHT22;33519;50.712;7.124;2023-03-16T16:31:42;12.40;92.50
46706;DHT22;33519;50.712;7.124;2023-03-16T16:34:13;12.50;92.20
46706;DHT22;33519;50.712;7.124;2023-03-16T16:36:40;12.30;92.30
46706;DHT22;33519;50.712;7.124;2023-03-16T16:39:06;12.10;92.90
46706;DHT22;33519;50.712;7.124;2023-03-16T16:41:34;11.90;92.90
46706;DHT22;33519;50.712;7.124;2023-03-16T16:44:02;11.90;93.00
46706;DHT22;33519;50.712;7.124;2023-03-16T16:46:37;11.90;93.30
46706;DHT22;33519;50.712;7.124;2023-03-16T16:49:23;11.80;93.60
46706;DHT22;33519;50.712;7.124;2023-03-16T16:51:50;11.70;93.60
46706;DHT22;33519;50.712;7.124;2023-03-16T16:54:19;11.60;93.60
46706;DHT22;33519;50.712;7.124;2023-03-16T16:56:46;11.50;93.60
46706;DHT22;33519;50.712;7.124;2023-03-16T16:59:14;11.40;93.80
46706;DHT22;33519;50.712;7.124;2023-03-16T17:01:43;11.40;93.50
46706;DHT22;33519;50.712;7.124;2023-03-16T17:04:12;11.30;93.70
46706;DHT22;33519;50.712;7.124;2023-03-16T17:06:39;11.20;93.60